createdAt,value
2018-08-06T00:01:33.539Z,10.13
2018-08-06T00:04:04.098Z,10.07
2018-08-06T00:06:34.945Z,9.27
2018-08-06T00:09:07.868Z,9.83
2018-08-06T00:11:38.899Z,11.67
2018-08-06T00:14:10.130Z,9.97
2018-08-06T00:16:41.329Z,8.97
2018-08-06T00:19:12.279Z,11.93
2018-08-06T00:21:43.287Z,10.40
2018-08-06T00:24:14.315Z,9.83
2018-08-06T00:26:45.257Z,9.67
2018-08-06T00:29:16.248Z,10.03
2018-08-06T00:31:47.352Z,9.27
2018-08-06T00:34:18.234Z,10.73
2018-08-06T00:36:49.138Z,9.30
2018-08-06T00:39:20.045Z,9.37
2018-08-06T00:41:51.002Z,10.97
2018-08-06T00:44:21.974Z,10.10
2018-08-06T00:46:52.870Z,10.00
2018-08-06T00:49:23.131Z,9.87
2018-08-06T00:51:53.877Z,10.97
2018-08-06T00:54:24.751Z,9.87
2018-08-06T00:56:55.631Z,10.47
2018-08-06T00:59:26.397Z,10.17
2018-08-06T01:01:57.635Z,9.90
2018-08-06T01:04:28.818Z,9.90
2018-08-06T01:07:05.273Z,10.10
2018-08-06T01:09:36.160Z,9.50
2018-08-06T01:12:07.367Z,10.10
2018-08-06T01:14:38.281Z,10.43
2018-08-06T01:17:09.152Z,11.53
2018-08-06T01:19:40.160Z,9.83
2018-08-06T01:22:11.338Z,10.43
2018-08-06T01:24:42.156Z,10.40
2018-08-06T01:27:13.290Z,10.07
2018-08-06T01:29:44.073Z,13.17
2018-08-06T01:32:14.901Z,9.50
2018-08-06T01:34:45.944Z,10.73
2018-08-06T01:37:17.047Z,10.43
2018-08-06T01:39:48.073Z,10.17
2018-08-06T01:42:18.923Z,10.27
2018-08-06T01:44:49.702Z,9.47
2018-08-06T01:47:20.668Z,11.57
2018-08-06T01:49:51.781Z,10.20
2018-08-06T01:52:22.651Z,9.33
2018-08-06T01:54:53.640Z,10.17
2018-08-06T01:57:24.595Z,10.70
2018-08-06T01:59:55.642Z,9.30
2018-08-06T02:02:26.073Z,10.47
2018-08-06T02:04:57.054Z,10.90
2018-08-06T02:07:27.990Z,10.70
2018-08-06T02:09:58.924Z,12.77
2018-08-06T02:12:29.608Z,9.70
2018-08-06T02:14:59.991Z,9.97
2018-08-06T02:17:30.750Z,9.87
2018-08-06T02:20:01.581Z,9.77
2018-08-06T02:22:32.568Z,9.87
2018-08-06T02:25:03.588Z,11.60
2018-08-06T02:27:34.409Z,9.63
2018-08-06T02:30:07.590Z,9.73
2018-08-06T02:32:38.639Z,10.00
2018-08-06T02:35:12.002Z,10.27
2018-08-06T02:37:43.367Z,9.77
2018-08-06T02:40:17.929Z,9.27
2018-08-06T02:42:48.936Z,9.57
2018-08-06T02:45:20.065Z,9.10
2018-08-06T02:47:50.980Z,9.77
2018-08-06T02:50:21.822Z,11.53
2018-08-06T02:52:52.818Z,9.63
2018-08-06T02:55:23.852Z,9.47
2018-08-06T02:57:54.793Z,11.47
2018-08-06T03:00:25.625Z,10.03
2018-08-06T03:02:56.333Z,10.20
2018-08-06T03:05:27.381Z,10.67
2018-08-06T03:07:58.267Z,9.80
2018-08-06T03:10:29.216Z,9.17
2018-08-06T03:13:00.037Z,9.77
2018-08-06T03:15:30.901Z,9.23
2018-08-06T03:18:01.692Z,9.00
2018-08-06T03:20:32.664Z,8.57
2018-08-06T03:23:03.455Z,13.27
2018-08-06T03:25:34.326Z,10.50
2018-08-06T03:28:05.367Z,10.20
2018-08-06T03:30:36.250Z,9.20
2018-08-06T03:33:07.285Z,9.37
2018-08-06T03:35:38.252Z,9.60
2018-08-06T03:38:09.639Z,9.83
2018-08-06T03:40:41.258Z,10.27
2018-08-06T03:43:12.204Z,10.37
2018-08-06T03:45:43.256Z,10.50
2018-08-06T03:48:14.364Z,10.77
2018-08-06T03:50:45.572Z,9.73
2018-08-06T03:53:16.615Z,13.20
2018-08-06T03:55:47.588Z,10.87
2018-08-06T03:58:18.875Z,10.60
2018-08-06T04:00:50.085Z,9.70
2018-08-06T04:03:20.879Z,10.30
2018-08-06T04:05:51.778Z,10.50
2018-08-06T04:08:22.757Z,10.00
2018-08-06T04:10:53.790Z,10.30
2018-08-06T04:13:25.053Z,11.40
2018-08-06T04:15:56.575Z,10.10
2018-08-06T04:18:27.628Z,10.87
2018-08-06T04:20:58.472Z,13.67
2018-08-06T04:23:29.488Z,9.63
2018-08-06T04:26:00.418Z,14.07
2018-08-06T04:28:31.660Z,9.90
2018-08-06T04:31:02.240Z,10.57
2018-08-06T04:33:33.271Z,10.00
2018-08-06T04:36:04.350Z,10.07
2018-08-06T04:38:35.307Z,10.53
2018-08-06T04:41:06.347Z,10.63
2018-08-06T04:43:37.420Z,8.00
2018-08-06T04:46:08.567Z,10.40
2018-08-06T04:48:39.633Z,9.83
2018-08-06T04:51:10.802Z,10.20
2018-08-06T04:53:42.059Z,10.83
2018-08-06T04:56:13.187Z,13.33
2018-08-06T04:58:44.713Z,12.20
2018-08-06T05:01:17.926Z,10.20
2018-08-06T05:03:50.819Z,17.43
2018-08-06T05:06:31.247Z,9.53
2018-08-06T05:09:09.220Z,13.73
2018-08-06T05:11:50.021Z,13.83
2018-08-06T05:14:34.847Z,13.80
2018-08-06T05:17:09.115Z,13.47
2018-08-06T05:19:46.860Z,10.23
2018-08-06T05:22:28.797Z,12.27
2018-08-06T05:25:06.141Z,13.37
2018-08-06T05:27:44.958Z,15.73
2018-08-06T05:33:23.125Z,10.67
2018-08-06T05:36:06.356Z,12.97
2018-08-06T05:38:46.723Z,15.20
2018-08-06T05:41:21.768Z,13.00
2018-08-06T05:44:04.427Z,16.10
2018-08-06T05:46:47.570Z,13.63
2018-08-06T05:49:38.379Z,13.20
2018-08-06T05:55:12.913Z,9.33
2018-08-06T05:57:57.278Z,13.57
2018-08-06T06:00:41.708Z,9.53
2018-08-06T06:03:20.813Z,10.33
2018-08-06T06:06:06.962Z,10.63
2018-08-06T06:09:01.277Z,10.33
2018-08-06T06:14:35.483Z,11.07
2018-08-06T06:17:15.310Z,9.80
2018-08-06T06:20:03.104Z,8.97
2018-08-06T06:22:44.010Z,9.43
2018-08-06T06:25:33.815Z,12.07
2018-08-06T06:28:22.434Z,11.07
2018-08-06T06:31:02.192Z,13.40
2018-08-06T06:33:40.732Z,10.70
2018-08-06T06:36:16.790Z,12.13
2018-08-06T06:41:34.061Z,15.33
2018-08-06T06:44:12.982Z,14.57
2018-08-06T06:46:53.288Z,15.47
2018-08-06T06:49:24.574Z,11.80
2018-08-06T06:51:56.230Z,13.13
2018-08-06T06:54:27.164Z,12.00
2018-08-06T06:56:58.689Z,12.63
2018-08-06T06:59:30.423Z,12.63
2018-08-06T07:02:02.091Z,9.60
2018-08-06T07:04:35.172Z,13.80
2018-08-06T07:07:06.917Z,16.17
2018-08-06T07:09:39.384Z,13.03
2018-08-06T07:12:11.417Z,12.80
2018-08-06T07:14:42.908Z,13.07
2018-08-06T07:17:14.177Z,18.07
2018-08-06T07:19:45.622Z,10.83
2018-08-06T07:22:17.008Z,13.97
2018-08-06T07:24:47.727Z,11.23
2018-08-06T07:27:20.052Z,10.80
2018-08-06T07:29:51.705Z,17.60
2018-08-06T07:32:23.980Z,13.40
2018-08-06T07:34:55.371Z,9.17
2018-08-06T07:37:26.543Z,9.67
2018-08-06T07:39:57.337Z,10.00
2018-08-06T07:42:28.148Z,12.20
2018-08-06T07:44:59.495Z,11.90
2018-08-06T07:47:30.952Z,12.73
2018-08-06T07:50:01.895Z,9.23
2018-08-06T07:52:33.393Z,15.47
2018-08-06T07:55:05.492Z,23.50
2018-08-06T07:57:37.927Z,13.53
2018-08-06T08:00:14.822Z,12.30
2018-08-06T08:02:46.159Z,12.70
2018-08-06T08:05:18.715Z,8.80
2018-08-06T08:07:51.943Z,9.93
2018-08-06T08:10:24.898Z,9.00
2018-08-06T08:12:56.349Z,8.10
2018-08-06T08:15:29.785Z,8.47
2018-08-06T08:18:02.651Z,12.50
2018-08-06T08:20:36.191Z,10.67
2018-08-06T08:23:08.306Z,9.57
2018-08-06T08:25:41.356Z,13.13
2018-08-06T08:28:12.933Z,10.70
2018-08-06T08:30:47.334Z,10.20
2018-08-06T08:33:18.292Z,14.67
2018-08-06T08:35:50.538Z,8.03
2018-08-06T08:38:22.895Z,8.10
2018-08-06T08:40:54.840Z,9.80
2018-08-06T08:43:26.780Z,10.77
2018-08-06T08:45:58.529Z,9.97
2018-08-06T08:48:29.361Z,10.07
2018-08-06T08:51:01.231Z,7.30
2018-08-06T08:53:32.696Z,10.67
2018-08-06T08:56:04.136Z,7.67
2018-08-06T08:58:36.090Z,17.63
2018-08-06T09:01:07.644Z,15.60
2018-08-06T09:03:38.931Z,9.87
2018-08-06T09:06:11.980Z,8.17
2018-08-06T09:08:43.423Z,9.57
2018-08-06T09:11:15.766Z,10.73
2018-08-06T09:13:47.032Z,7.50
2018-08-06T09:16:18.316Z,7.80
2018-08-06T09:18:53.319Z,8.20
2018-08-06T09:21:24.523Z,9.20
2018-08-06T09:23:56.429Z,7.43
2018-08-06T09:26:28.676Z,7.73
2018-08-06T09:29:01.335Z,9.67
2018-08-06T09:31:35.165Z,8.73
2018-08-06T09:34:12.100Z,10.23
2018-08-06T09:36:45.510Z,8.97
2018-08-06T09:39:17.007Z,8.97
2018-08-06T09:41:48.646Z,6.70
2018-08-06T09:44:21.140Z,9.47
2018-08-06T09:46:54.390Z,14.63
2018-08-06T09:49:25.993Z,6.47
2018-08-06T09:52:01.359Z,6.97
2018-08-06T09:54:33.460Z,10.70
2018-08-06T09:57:05.225Z,9.00
2018-08-06T09:59:36.628Z,7.40
2018-08-06T10:02:09.374Z,13.13
2018-08-06T10:04:41.729Z,9.53
2018-08-06T10:07:12.841Z,7.00
2018-08-06T10:09:43.991Z,6.13
2018-08-06T10:12:15.988Z,5.73
2018-08-06T10:14:48.657Z,8.23
2018-08-06T10:17:20.140Z,6.13
2018-08-06T10:19:50.840Z,10.93
2018-08-06T10:22:22.203Z,7.13
2018-08-06T10:24:53.553Z,6.63
2018-08-06T10:27:25.246Z,6.13
2018-08-06T10:29:56.816Z,5.60
2018-08-06T10:32:27.452Z,4.87
2018-08-06T10:34:59.310Z,4.90
2018-08-06T10:37:31.889Z,5.43
2018-08-06T10:40:03.928Z,5.07
2018-08-06T10:42:35.330Z,17.67
2018-08-06T10:45:11.152Z,7.87
2018-08-06T10:47:43.608Z,6.37
2018-08-06T10:50:16.544Z,4.90
2018-08-06T10:52:48.673Z,4.70
2018-08-06T10:55:19.857Z,4.57
2018-08-06T10:57:51.227Z,5.97
2018-08-06T11:00:24.830Z,4.13
2018-08-06T11:02:56.335Z,5.00
2018-08-06T11:05:27.953Z,7.40
2018-08-06T11:08:00.016Z,4.73
2018-08-06T11:10:33.556Z,4.77
2018-08-06T11:13:05.669Z,9.00
2018-08-06T11:15:37.138Z,5.10
2018-08-06T11:18:10.950Z,6.67
2018-08-06T11:20:44.023Z,4.90
2018-08-06T11:23:17.347Z,5.63
2018-08-06T11:25:49.967Z,4.30
2018-08-06T11:28:21.948Z,7.57
2018-08-06T11:30:53.820Z,6.03
2018-08-06T11:33:25.922Z,11.53
2018-08-06T11:35:57.340Z,7.53
2018-08-06T11:38:29.095Z,4.90
2018-08-06T11:41:03.742Z,5.63
2018-08-06T11:43:36.435Z,5.37
2018-08-06T11:46:08.478Z,5.43
2018-08-06T11:48:44.446Z,8.60
2018-08-06T11:51:16.201Z,4.77
2018-08-06T11:53:48.348Z,4.83
2018-08-06T11:56:19.875Z,8.47
2018-08-06T11:58:53.323Z,5.03
2018-08-06T12:01:24.825Z,4.80
2018-08-06T12:03:58.093Z,5.97
2018-08-06T12:06:30.531Z,4.50
2018-08-06T12:09:03.974Z,8.27
2018-08-06T12:11:37.322Z,4.30
2018-08-06T12:14:11.302Z,4.87
2018-08-06T12:16:43.899Z,4.83
2018-08-06T12:19:26.360Z,5.17
2018-08-06T12:21:59.472Z,6.47
2018-08-06T12:24:32.260Z,4.97
2018-08-06T12:27:05.516Z,4.43
2018-08-06T12:29:41.656Z,6.33
2018-08-06T12:32:14.286Z,6.80
2018-08-06T12:34:48.696Z,5.63
2018-08-06T12:37:20.361Z,5.60
2018-08-06T12:39:52.374Z,4.50
2018-08-06T12:42:26.281Z,5.13
2018-08-06T12:45:01.277Z,5.97
2018-08-06T12:47:33.271Z,4.90
2018-08-06T12:50:04.470Z,4.97
2018-08-06T12:52:39.002Z,5.30
2018-08-06T12:55:13.515Z,4.57
2018-08-06T12:57:46.640Z,3.77
2018-08-06T13:00:25.894Z,6.47
2018-08-06T13:03:00.748Z,4.87
2018-08-06T13:05:33.757Z,4.47
2018-08-06T13:08:04.749Z,5.57
2018-08-06T13:10:36.770Z,4.60
2018-08-06T13:13:07.712Z,6.70
2018-08-06T13:15:40.657Z,4.43
2018-08-06T13:18:13.435Z,4.90
2018-08-06T13:20:47.457Z,3.87
2018-08-06T13:23:19.767Z,4.60
2018-08-06T13:25:52.873Z,8.43
2018-08-06T13:28:24.747Z,7.23
2018-08-06T13:30:56.536Z,5.43
2018-08-06T13:33:28.413Z,6.83
2018-08-06T13:36:01.049Z,5.00
2018-08-06T13:38:34.241Z,4.73
2018-08-06T13:41:06.148Z,6.97
2018-08-06T13:43:38.531Z,4.80
2018-08-06T13:46:13.217Z,4.63
2018-08-06T13:48:46.421Z,6.53
2018-08-06T13:51:20.591Z,4.23
2018-08-06T13:53:54.611Z,6.17
2018-08-06T13:56:30.566Z,4.97
2018-08-06T13:59:03.309Z,5.30
2018-08-06T14:01:39.390Z,4.67
2018-08-06T14:04:18.232Z,5.77
2018-08-06T14:06:51.757Z,5.13
2018-08-06T14:09:23.993Z,6.07
2018-08-06T14:11:56.151Z,4.50
2018-08-06T14:14:27.891Z,5.00
2018-08-06T14:17:00.066Z,5.93
2018-08-06T14:19:31.520Z,7.10
2018-08-06T14:22:03.435Z,4.43
2018-08-06T14:24:35.133Z,5.70
2018-08-06T14:27:07.776Z,6.37
2018-08-06T14:29:39.811Z,6.10
2018-08-06T14:32:10.877Z,5.63
2018-08-06T14:34:44.460Z,8.10
2018-08-06T14:37:22.195Z,5.00
2018-08-06T14:39:58.227Z,4.60
2018-08-06T14:42:34.098Z,6.33
2018-08-06T14:45:11.078Z,5.03
2018-08-06T14:47:44.644Z,9.23
2018-08-06T14:50:18.366Z,5.67
2018-08-06T14:52:51.653Z,5.03
2018-08-06T14:55:23.512Z,5.83
2018-08-06T14:57:56.909Z,6.20
2018-08-06T15:00:28.492Z,4.90
2018-08-06T15:02:59.256Z,14.90
2018-08-06T15:05:30.646Z,6.10
2018-08-06T15:08:02.098Z,4.97
2018-08-06T15:10:33.704Z,5.53
2018-08-06T15:13:05.043Z,4.97
2018-08-06T15:15:38.295Z,7.03
2018-08-06T15:18:26.103Z,7.83
2018-08-06T15:21:02.887Z,13.60
2018-08-06T15:23:41.663Z,7.90
2018-08-06T15:26:16.821Z,7.37
2018-08-06T15:28:50.249Z,5.43
2018-08-06T15:31:24.368Z,5.43
2018-08-06T15:34:01.445Z,8.73
2018-08-06T15:36:35.116Z,6.13
2018-08-06T15:39:16.225Z,6.00
2018-08-06T15:41:51.220Z,11.40
2018-08-06T15:44:25.007Z,21.67
2018-08-06T15:47:00.692Z,10.87
2018-08-06T15:49:34.149Z,7.73
2018-08-06T15:52:08.368Z,5.20
2018-08-06T15:54:42.290Z,7.50
2018-08-06T15:57:16.008Z,6.83
2018-08-06T15:59:48.440Z,6.67
2018-08-06T16:02:23.202Z,12.13
2018-08-06T16:04:57.515Z,7.30
2018-08-06T16:07:30.302Z,7.67
2018-08-06T16:10:04.827Z,7.93
2018-08-06T16:12:37.698Z,6.60
2018-08-06T16:15:16.067Z,6.70
2018-08-06T16:17:52.963Z,8.33
2018-08-06T16:20:26.794Z,7.70
2018-08-06T16:23:01.635Z,7.57
2018-08-06T16:25:34.828Z,6.57
2018-08-06T16:28:09.224Z,6.13
2018-08-06T16:30:48.605Z,7.27
2018-08-06T16:33:23.929Z,6.33
2018-08-06T16:35:59.958Z,7.83
2018-08-06T16:38:31.509Z,8.57
2018-08-06T16:41:04.700Z,9.20
2018-08-06T16:43:39.111Z,18.37
2018-08-06T16:46:15.795Z,13.43
2018-08-06T16:48:48.564Z,10.53
2018-08-06T16:51:20.489Z,9.10
2018-08-06T16:53:53.876Z,11.33
2018-08-06T16:56:25.468Z,14.07
2018-08-06T16:58:57.095Z,17.83
2018-08-06T17:01:30.622Z,13.40
2018-08-06T17:04:02.307Z,8.90
2018-08-06T17:06:34.003Z,9.77
2018-08-06T17:09:09.763Z,9.67
2018-08-06T17:11:41.041Z,8.03
2018-08-06T17:14:12.344Z,8.27
2018-08-06T17:16:43.750Z,11.50
2018-08-06T17:19:16.253Z,10.50
2018-08-06T17:21:48.833Z,10.57
2018-08-06T17:24:21.767Z,7.83
2018-08-06T17:26:54.997Z,7.30
2018-08-06T17:29:27.037Z,7.60
2018-08-06T17:31:58.932Z,7.73
2018-08-06T17:34:31.026Z,9.63
2018-08-06T17:37:05.183Z,9.20
2018-08-06T17:39:38.732Z,7.60
2018-08-06T17:42:11.920Z,7.83
2018-08-06T17:44:47.120Z,8.43
2018-08-06T17:47:23.818Z,9.00
2018-08-06T17:50:00.985Z,8.90
2018-08-06T17:52:34.338Z,11.00
2018-08-06T17:55:06.484Z,11.00
2018-08-06T17:57:40.508Z,9.17
2018-08-06T18:00:14.979Z,9.90
2018-08-06T18:02:51.451Z,9.40
2018-08-06T18:05:28.582Z,8.43
2018-08-06T18:08:03.009Z,12.17
2018-08-06T18:10:37.421Z,8.53
2018-08-06T18:13:11.191Z,11.50
2018-08-06T18:15:44.138Z,9.30
2018-08-06T18:18:20.107Z,8.27
2018-08-06T18:21:00.637Z,9.30
2018-08-06T18:23:34.547Z,10.53
2018-08-06T18:26:12.358Z,9.43
2018-08-06T18:28:49.511Z,9.43
2018-08-06T18:31:26.642Z,9.60
2018-08-06T18:33:59.043Z,10.87
2018-08-06T18:36:33.421Z,10.10
2018-08-06T18:39:12.459Z,12.30
2018-08-06T18:41:45.167Z,9.83
2018-08-06T18:44:18.326Z,11.90
2018-08-06T18:46:52.401Z,10.13
2018-08-06T18:49:26.941Z,10.53
2018-08-06T18:51:59.209Z,10.93
2018-08-06T18:54:37.427Z,10.37
2018-08-06T18:57:09.473Z,11.07
2018-08-06T18:59:43.251Z,10.73
2018-08-06T19:02:18.084Z,12.00
2018-08-06T19:04:56.312Z,9.80
2018-08-06T19:07:33.040Z,11.13
2018-08-06T19:10:06.492Z,11.20
2018-08-06T19:12:46.204Z,11.17
2018-08-06T19:15:19.765Z,9.37
2018-08-06T19:17:57.118Z,10.53
2018-08-06T19:20:28.517Z,11.07
2018-08-06T19:22:59.921Z,12.23
2018-08-06T19:25:32.551Z,12.03
2018-08-06T19:28:04.169Z,13.00
2018-08-06T19:30:40.520Z,10.57
2018-08-06T19:33:12.435Z,10.83
2018-08-06T19:35:45.594Z,10.43
2018-08-06T19:38:19.680Z,10.77
2018-08-06T19:40:51.686Z,10.33
2018-08-06T19:43:30.531Z,13.13
2018-08-06T19:46:03.589Z,9.87
2018-08-06T19:48:35.290Z,11.97
2018-08-06T19:51:07.435Z,10.37
2018-08-06T19:53:39.300Z,11.07
2018-08-06T19:56:16.615Z,10.90
2018-08-06T19:58:49.946Z,10.97
2018-08-06T20:01:22.609Z,10.60
2018-08-06T20:03:55.873Z,10.53
2018-08-06T20:06:28.039Z,10.37
2018-08-06T20:09:00.349Z,10.67
2018-08-06T20:11:31.746Z,10.57
2018-08-06T20:14:03.488Z,12.30
2018-08-06T20:16:36.181Z,10.90
2018-08-06T20:19:10.503Z,10.33
2018-08-06T20:21:42.769Z,10.53
2018-08-06T20:24:16.285Z,11.10
2018-08-06T20:26:48.383Z,10.80
2018-08-06T20:29:20.869Z,10.40
2018-08-06T20:31:52.702Z,10.27
2018-08-06T20:34:26.766Z,10.73
2018-08-06T20:36:58.405Z,12.87
2018-08-06T20:39:31.553Z,11.47
2018-08-06T20:42:03.855Z,11.57
2018-08-06T20:44:38.455Z,12.57
2018-08-06T20:47:09.694Z,10.63
2018-08-06T20:49:41.658Z,11.13
2018-08-06T20:52:13.291Z,11.00
2018-08-06T20:54:45.032Z,11.60
2018-08-06T20:57:16.298Z,11.30
2018-08-06T20:59:49.205Z,11.33
2018-08-06T21:02:22.246Z,10.37
2018-08-06T21:04:54.324Z,11.20
2018-08-06T21:07:26.644Z,11.70
2018-08-06T21:10:04.482Z,11.30
2018-08-06T21:12:36.085Z,11.30
2018-08-06T21:15:08.740Z,11.83
2018-08-06T21:17:40.427Z,11.70
2018-08-06T21:20:16.281Z,11.40
2018-08-06T21:22:49.970Z,11.93
2018-08-06T21:25:22.368Z,11.73
2018-08-06T21:27:54.956Z,11.87
2018-08-06T21:30:26.367Z,11.13
2018-08-06T21:32:59.038Z,10.90
2018-08-06T21:35:30.452Z,10.60
2018-08-06T21:38:01.682Z,11.17
2018-08-06T21:40:33.144Z,11.60
2018-08-06T21:43:04.658Z,11.83
2018-08-06T21:45:38.164Z,11.00
2018-08-06T21:48:12.041Z,11.07
2018-08-06T21:50:43.457Z,12.17
2018-08-06T21:53:14.793Z,11.53
2018-08-06T21:55:45.510Z,11.37
2018-08-06T21:58:17.703Z,12.20
2018-08-06T22:00:49.333Z,11.23
2018-08-06T22:03:21.847Z,12.30
2018-08-06T22:05:52.837Z,10.77
2018-08-06T22:08:23.910Z,10.47
2018-08-06T22:10:55.220Z,10.77
2018-08-06T22:13:26.525Z,10.50
2018-08-06T22:15:57.985Z,11.53
2018-08-06T22:18:29.078Z,11.53
2018-08-06T22:21:00.109Z,11.30
2018-08-06T22:23:30.619Z,10.33
2018-08-06T22:26:01.874Z,11.83
2018-08-06T22:28:33.037Z,11.30
2018-08-06T22:31:03.860Z,10.30
2018-08-06T22:33:35.508Z,11.13
2018-08-06T22:36:06.721Z,10.97
2018-08-06T22:38:37.727Z,11.77
2018-08-06T22:41:08.917Z,11.13
2018-08-06T22:43:40.233Z,11.20
2018-08-06T22:46:11.295Z,11.50
2018-08-06T22:48:42.353Z,12.90
2018-08-06T22:51:13.350Z,11.77
2018-08-06T22:53:44.317Z,11.67
2018-08-06T22:56:15.434Z,11.37
2018-08-06T22:58:46.441Z,12.07
2018-08-06T23:01:16.970Z,10.73
2018-08-06T23:03:47.980Z,10.63
2018-08-06T23:06:19.093Z,13.00
2018-08-06T23:08:50.299Z,12.63
2018-08-06T23:11:21.213Z,12.20
2018-08-06T23:13:52.263Z,11.87
2018-08-06T23:16:23.499Z,12.67
2018-08-06T23:18:54.629Z,12.13
2018-08-06T23:21:25.798Z,11.83
2018-08-06T23:23:56.820Z,14.67
2018-08-06T23:26:27.837Z,11.57
2018-08-06T23:28:58.839Z,13.03
2018-08-06T23:31:29.233Z,13.93
2018-08-06T23:34:00.135Z,11.83
2018-08-06T23:36:32.093Z,12.03
2018-08-06T23:39:03.120Z,12.27
2018-08-06T23:41:34.222Z,11.07
2018-08-06T23:44:05.453Z,13.67
2018-08-06T23:46:36.435Z,11.77
2018-08-06T23:49:06.884Z,12.67
2018-08-06T23:51:37.625Z,11.87
2018-08-06T23:54:08.710Z,14.23
2018-08-06T23:56:39.817Z,11.30
2018-08-06T23:59:11.109Z,11.23
